sensor_id;sensor_type;location;lat;lon;timestamp;P1;durP1;ratioP1;P2;durP2;ratioP2
34471;SDS011;20710;49.976;19.836;2023-03-17T00:00:47;74.70;;;34.30;;
34471;SDS011;20710;49.976;19.836;2023-03-17T00:06:58;78.20;;;34.10;;
34471;SDS011;20710;49.976;19.836;2023-03-17T00:13:00;75.20;;;32.50;;
34471;SDS011;20710;49.976;19.836;2023-03-17T00:19:14;71.80;;;31.50;;
34471;SDS011;20710;49.976;19.836;2023-03-17T00:25:31;67.00;;;31.10;;
34471;SDS011;20710;49.976;19.836;2023-03-17T00:31:54;83.50;;;35.20;;
34471;SDS011;20710;49.976;19.836;2023-03-17T00:37:57;76.70;;;32.90;;
34471;SDS011;20710;49.976;19.836;2023-03-17T00:44:01;64.90;;;28.80;;
34471;SDS011;20710;49.976;19.836;2023-03-17T00:50:03;71.10;;;31.70;;
34471;SDS011;20710;49.976;19.836;2023-03-17T00:56:12;76.60;;;33.80;;
34471;SDS011;20710;49.976;19.836;2023-03-17T01:02:31;75.40;;;31.40;;
34471;SDS011;20710;49.976;19.836;2023-03-17T01:08:54;78.20;;;36.10;;
34471;SDS011;20710;49.976;19.836;2023-03-17T01:14:56;95.50;;;43.20;;
34471;SDS011;20710;49.976;19.836;2023-03-17T01:20:59;97.20;;;42.20;;
34471;SDS011;20710;49.976;19.836;2023-03-17T01:27:22;79.10;;;36.40;;
34471;SDS011;20710;49.976;19.836;2023-03-17T01:33:45;87.90;;;39.10;;
34471;SDS011;20710;49.976;19.836;2023-03-17T01:39:53;86.80;;;39.70;;
34471;SDS011;20710;49.976;19.836;2023-03-17T01:46:12;92.00;;;42.40;;
34471;SDS011;20710;49.976;19.836;2023-03-17T01:52:29;91.50;;;43.70;;
34471;SDS011;20710;49.976;19.836;2023-03-17T01:58:52;91.90;;;39.80;;
34471;SDS011;20710;49.976;19.836;2023-03-17T02:04:55;86.70;;;38.60;;
34471;SDS011;20710;49.976;19.836;2023-03-17T02:10:57;90.60;;;43.00;;
34471;SDS011;20710;49.976;19.836;2023-03-17T02:16:59;82.60;;;37.30;;
34471;SDS011;20710;49.976;19.836;2023-03-17T02:23:01;93.40;;;39.40;;
34471;SDS011;20710;49.976;19.836;2023-03-17T02:29:04;98.10;;;45.40;;
34471;SDS011;20710;49.976;19.836;2023-03-17T02:35:07;95.10;;;41.40;;
34471;SDS011;20710;49.976;19.836;2023-03-17T02:41:11;90.40;;;39.70;;
34471;SDS011;20710;49.976;19.836;2023-03-17T02:47:14;111.90;;;47.10;;
34471;SDS011;20710;49.976;19.836;2023-03-17T02:53:16;106.70;;;48.40;;
34471;SDS011;20710;49.976;19.836;2023-03-17T02:59:21;105.60;;;47.10;;
34471;SDS011;20710;49.976;19.836;2023-03-17T03:05:24;114.10;;;51.00;;
34471;SDS011;20710;49.976;19.836;2023-03-17T03:11:26;114.00;;;51.30;;
34471;SDS011;20710;49.976;19.836;2023-03-17T03:17:31;109.10;;;47.90;;
34471;SDS011;20710;49.976;19.836;2023-03-17T03:23:33;95.10;;;42.80;;
34471;SDS011;20710;49.976;19.836;2023-03-17T03:29:35;88.20;;;41.60;;
34471;SDS011;20710;49.976;19.836;2023-03-17T03:35:37;93.60;;;43.30;;
34471;SDS011;20710;49.976;19.836;2023-03-17T03:41:42;107.10;;;45.00;;
34471;SDS011;20710;49.976;19.836;2023-03-17T03:48:00;104.70;;;44.50;;
34471;SDS011;20710;49.976;19.836;2023-03-17T03:54:01;92.30;;;41.40;;
34471;SDS011;20710;49.976;19.836;2023-03-17T04:00:04;95.30;;;40.70;;
34471;SDS011;20710;49.976;19.836;2023-03-17T04:06:29;84.70;;;37.40;;
34471;SDS011;20710;49.976;19.836;2023-03-17T04:12:32;87.70;;;37.90;;
34471;SDS011;20710;49.976;19.836;2023-03-17T04:18:34;79.50;;;38.80;;
34471;SDS011;20710;49.976;19.836;2023-03-17T04:24:37;90.00;;;39.70;;
34471;SDS011;20710;49.976;19.836;2023-03-17T04:30:41;80.90;;;35.40;;
34471;SDS011;20710;49.976;19.836;2023-03-17T04:36:51;83.30;;;36.60;;
34471;SDS011;20710;49.976;19.836;2023-03-17T04:42:52;87.00;;;36.60;;
34471;SDS011;20710;49.976;19.836;2023-03-17T04:48:55;96.60;;;37.20;;
34471;SDS011;20710;49.976;19.836;2023-03-17T04:54:57;86.50;;;35.90;;
34471;SDS011;20710;49.976;19.836;2023-03-17T05:00:59;83.70;;;36.50;;
34471;SDS011;20710;49.976;19.836;2023-03-17T05:07:02;88.10;;;34.90;;
34471;SDS011;20710;49.976;19.836;2023-03-17T05:13:03;84.00;;;34.20;;
34471;SDS011;20710;49.976;19.836;2023-03-17T05:19:05;81.90;;;32.50;;
34471;SDS011;20710;49.976;19.836;2023-03-17T05:25:07;70.60;;;32.80;;
34471;SDS011;20710;49.976;19.836;2023-03-17T05:31:09;65.30;;;29.50;;
34471;SDS011;20710;49.976;19.836;2023-03-17T05:37:10;88.50;;;38.50;;
34471;SDS011;20710;49.976;19.836;2023-03-17T05:43:12;78.40;;;33.60;;
34471;SDS011;20710;49.976;19.836;2023-03-17T05:49:14;69.90;;;31.60;;
34471;SDS011;20710;49.976;19.836;2023-03-17T05:55:16;63.40;;;27.40;;
34471;SDS011;20710;49.976;19.836;2023-03-17T06:01:17;70.90;;;31.40;;
34471;SDS011;20710;49.976;19.836;2023-03-17T06:07:19;61.80;;;28.10;;
34471;SDS011;20710;49.976;19.836;2023-03-17T06:13:21;62.70;;;29.50;;
34471;SDS011;20710;49.976;19.836;2023-03-17T06:19:23;82.70;;;32.30;;
34471;SDS011;20710;49.976;19.836;2023-03-17T06:25:24;82.20;;;33.70;;
34471;SDS011;20710;49.976;19.836;2023-03-17T06:31:31;67.90;;;30.50;;
34471;SDS011;20710;49.976;19.836;2023-03-17T06:37:34;59.60;;;30.00;;
34471;SDS011;20710;49.976;19.836;2023-03-17T06:43:36;69.10;;;29.60;;
34471;SDS011;20710;49.976;19.836;2023-03-17T06:49:37;315.80;;;128.60;;
34471;SDS011;20710;49.976;19.836;2023-03-17T06:55:39;67.10;;;31.70;;
34471;SDS011;20710;49.976;19.836;2023-03-17T07:01:42;65.00;;;29.70;;
34471;SDS011;20710;49.976;19.836;2023-03-17T07:07:44;59.20;;;28.10;;
34471;SDS011;20710;49.976;19.836;2023-03-17T07:13:46;54.60;;;28.30;;
34471;SDS011;20710;49.976;19.836;2023-03-17T07:19:48;62.30;;;27.30;;
34471;SDS011;20710;49.976;19.836;2023-03-17T07:25:50;51.50;;;25.40;;
34471;SDS011;20710;49.976;19.836;2023-03-17T07:31:52;49.90;;;24.20;;
34471;SDS011;20710;49.976;19.836;2023-03-17T07:37:54;53.70;;;24.10;;
34471;SDS011;20710;49.976;19.836;2023-03-17T07:43:55;43.70;;;21.20;;
34471;SDS011;20710;49.976;19.836;2023-03-17T07:50:00;53.40;;;26.10;;
34471;SDS011;20710;49.976;19.836;2023-03-17T07:56:02;50.10;;;24.60;;
34471;SDS011;20710;49.976;19.836;2023-03-17T08:02:04;39.10;;;19.80;;
34471;SDS011;20710;49.976;19.836;2023-03-17T08:09:16;46.90;;;24.90;;
34471;SDS011;20710;49.976;19.836;2023-03-17T08:16:44;42.10;;;21.00;;
34471;SDS011;20710;49.976;19.836;2023-03-17T08:23:53;37.50;;;20.80;;
34471;SDS011;20710;49.976;19.836;2023-03-17T08:31:15;42.70;;;20.50;;
34471;SDS011;20710;49.976;19.836;2023-03-17T08:37:43;37.80;;;17.70;;
34471;SDS011;20710;49.976;19.836;2023-03-17T08:43:45;28.00;;;14.30;;
34471;SDS011;20710;49.976;19.836;2023-03-17T08:49:48;20.00;;;11.20;;
34471;SDS011;20710;49.976;19.836;2023-03-17T08:55:50;25.80;;;11.00;;
34471;SDS011;20710;49.976;19.836;2023-03-17T09:01:52;22.30;;;10.10;;
34471;SDS011;20710;49.976;19.836;2023-03-17T09:07:55;19.70;;;9.90;;
34471;SDS011;20710;49.976;19.836;2023-03-17T09:13:57;13.50;;;7.20;;
34471;SDS011;20710;49.976;19.836;2023-03-17T09:20:00;14.30;;;5.10;;
34471;SDS011;20710;49.976;19.836;2023-03-17T09:26:27;8.00;;;4.30;;
34471;SDS011;20710;49.976;19.836;2023-03-17T09:32:29;9.80;;;4.40;;
34471;SDS011;20710;49.976;19.836;2023-03-17T09:38:31;10.40;;;4.60;;
34471;SDS011;20710;49.976;19.836;2023-03-17T09:45:19;7.40;;;3.80;;
34471;SDS011;20710;49.976;19.836;2023-03-17T09:52:00;7.00;;;3.30;;
34471;SDS011;20710;49.976;19.836;2023-03-17T09:58:02;5.40;;;3.00;;
34471;SDS011;20710;49.976;19.836;2023-03-17T10:04:04;7.10;;;3.50;;
34471;SDS011;20710;49.976;19.836;2023-03-17T10:10:13;7.50;;;3.70;;
34471;SDS011;20710;49.976;19.836;2023-03-17T10:16:41;8.00;;;4.30;;
34471;SDS011;20710;49.976;19.836;2023-03-17T10:23:00;6.90;;;3.60;;
34471;SDS011;20710;49.976;19.836;2023-03-17T10:29:10;7.10;;;4.20;;
34471;SDS011;20710;49.976;19.836;2023-03-17T10:35:18;6.20;;;3.80;;
34471;SDS011;20710;49.976;19.836;2023-03-17T10:41:47;10.60;;;3.90;;
34471;SDS011;20710;49.976;19.836;2023-03-17T10:49:05;6.20;;;3.40;;
34471;SDS011;20710;49.976;19.836;2023-03-17T10:55:41;5.40;;;3.10;;
34471;SDS011;20710;49.976;19.836;2023-03-17T11:02:19;6.50;;;2.90;;
34471;SDS011;20710;49.976;19.836;2023-03-17T11:15:04;8.40;;;3.10;;
34471;SDS011;20710;49.976;19.836;2023-03-17T11:21:14;6.40;;;3.30;;
34471;SDS011;20710;49.976;19.836;2023-03-17T11:33:45;5.30;;;2.80;;
34471;SDS011;20710;49.976;19.836;2023-03-17T11:40:14;4.70;;;2.90;;
34471;SDS011;20710;49.976;19.836;2023-03-17T12:05:24;4.80;;;2.90;;
34471;SDS011;20710;49.976;19.836;2023-03-17T12:11:27;8.20;;;4.00;;
34471;SDS011;20710;49.976;19.836;2023-03-17T12:18:04;7.30;;;3.30;;
34471;SDS011;20710;49.976;19.836;2023-03-17T12:37:13;6.70;;;3.00;;
34471;SDS011;20710;49.976;19.836;2023-03-17T12:44:12;4.00;;;2.30;;
34471;SDS011;20710;49.976;19.836;2023-03-17T12:58:00;7.90;;;3.30;;
34471;SDS011;20710;49.976;19.836;2023-03-17T13:04:30;5.30;;;2.90;;
34471;SDS011;20710;49.976;19.836;2023-03-17T13:17:31;6.30;;;3.50;;
34471;SDS011;20710;49.976;19.836;2023-03-17T13:24:51;9.30;;;3.50;;
34471;SDS011;20710;49.976;19.836;2023-03-17T13:30:55;6.20;;;3.50;;
34471;SDS011;20710;49.976;19.836;2023-03-17T13:50:40;9.90;;;4.10;;
34471;SDS011;20710;49.976;19.836;2023-03-17T14:03:09;9.20;;;3.90;;
34471;SDS011;20710;49.976;19.836;2023-03-17T14:10:39;7.30;;;3.90;;
34471;SDS011;20710;49.976;19.836;2023-03-17T14:17:15;7.00;;;3.50;;
34471;SDS011;20710;49.976;19.836;2023-03-17T14:23:24;6.70;;;3.50;;
34471;SDS011;20710;49.976;19.836;2023-03-17T14:29:55;12.00;;;4.40;;
34471;SDS011;20710;49.976;19.836;2023-03-17T14:36:42;11.10;;;4.90;;
34471;SDS011;20710;49.976;19.836;2023-03-17T14:42:45;11.10;;;4.70;;
34471;SDS011;20710;49.976;19.836;2023-03-17T14:49:14;9.50;;;4.40;;
34471;SDS011;20710;49.976;19.836;2023-03-17T14:55:20;10.10;;;4.50;;
34471;SDS011;20710;49.976;19.836;2023-03-17T15:01:31;9.30;;;3.70;;
34471;SDS011;20710;49.976;19.836;2023-03-17T15:07:41;11.20;;;4.40;;
34471;SDS011;20710;49.976;19.836;2023-03-17T15:13:49;8.00;;;4.10;;
34471;SDS011;20710;49.976;19.836;2023-03-17T15:19:59;8.80;;;3.60;;
34471;SDS011;20710;49.976;19.836;2023-03-17T15:26:39;7.90;;;3.50;;
34471;SDS011;20710;49.976;19.836;2023-03-17T15:32:40;8.80;;;3.90;;
34471;SDS011;20710;49.976;19.836;2023-03-17T15:39:23;7.00;;;3.20;;
34471;SDS011;20710;49.976;19.836;2023-03-17T15:45:26;9.70;;;3.70;;
34471;SDS011;20710;49.976;19.836;2023-03-17T15:51:28;9.60;;;4.70;;
34471;SDS011;20710;49.976;19.836;2023-03-17T15:57:33;7.40;;;3.60;;
34471;SDS011;20710;49.976;19.836;2023-03-17T16:03:35;9.00;;;4.20;;
34471;SDS011;20710;49.976;19.836;2023-03-17T16:16:53;8.30;;;4.40;;
34471;SDS011;20710;49.976;19.836;2023-03-17T16:22:56;8.00;;;3.80;;
34471;SDS011;20710;49.976;19.836;2023-03-17T16:29:04;10.00;;;3.90;;
34471;SDS011;20710;49.976;19.836;2023-03-17T16:35:16;11.90;;;6.00;;
34471;SDS011;20710;49.976;19.836;2023-03-17T16:41:24;14.30;;;5.90;;
34471;SDS011;20710;49.976;19.836;2023-03-17T16:47:47;13.50;;;6.10;;
34471;SDS011;20710;49.976;19.836;2023-03-17T16:53:50;12.80;;;5.80;;
34471;SDS011;20710;49.976;19.836;2023-03-17T16:59:51;17.70;;;7.10;;
34471;SDS011;20710;49.976;19.836;2023-03-17T17:05:53;28.90;;;12.70;;
34471;SDS011;20710;49.976;19.836;2023-03-17T17:12:42;18.10;;;10.50;;
34471;SDS011;20710;49.976;19.836;2023-03-17T17:18:44;13.40;;;7.20;;
34471;SDS011;20710;49.976;19.836;2023-03-17T17:24:50;19.70;;;8.30;;
34471;SDS011;20710;49.976;19.836;2023-03-17T17:30:55;17.10;;;8.90;;
34471;SDS011;20710;49.976;19.836;2023-03-17T17:36:58;20.90;;;9.60;;
34471;SDS011;20710;49.976;19.836;2023-03-17T17:43:00;23.60;;;11.60;;
34471;SDS011;20710;49.976;19.836;2023-03-17T17:49:02;22.30;;;9.90;;
34471;SDS011;20710;49.976;19.836;2023-03-17T17:55:35;26.10;;;10.50;;
34471;SDS011;20710;49.976;19.836;2023-03-17T18:01:58;24.40;;;11.60;;
34471;SDS011;20710;49.976;19.836;2023-03-17T18:08:01;26.40;;;12.20;;
34471;SDS011;20710;49.976;19.836;2023-03-17T18:14:04;29.70;;;14.20;;
34471;SDS011;20710;49.976;19.836;2023-03-17T18:20:10;33.10;;;13.40;;
34471;SDS011;20710;49.976;19.836;2023-03-17T18:26:16;32.80;;;13.70;;
34471;SDS011;20710;49.976;19.836;2023-03-17T18:32:21;36.70;;;14.90;;
34471;SDS011;20710;49.976;19.836;2023-03-17T18:38:49;45.40;;;17.80;;
34471;SDS011;20710;49.976;19.836;2023-03-17T18:44:51;42.30;;;19.00;;
34471;SDS011;20710;49.976;19.836;2023-03-17T18:51:03;32.90;;;14.70;;
34471;SDS011;20710;49.976;19.836;2023-03-17T18:57:06;30.40;;;14.40;;
34471;SDS011;20710;49.976;19.836;2023-03-17T19:03:28;36.30;;;17.30;;
34471;SDS011;20710;49.976;19.836;2023-03-17T19:09:50;41.90;;;18.00;;
34471;SDS011;20710;49.976;19.836;2023-03-17T19:16:06;41.40;;;17.40;;
34471;SDS011;20710;49.976;19.836;2023-03-17T19:22:08;46.30;;;18.40;;
34471;SDS011;20710;49.976;19.836;2023-03-17T19:28:11;45.30;;;21.30;;
34471;SDS011;20710;49.976;19.836;2023-03-17T19:34:13;46.80;;;21.40;;
34471;SDS011;20710;49.976;19.836;2023-03-17T19:40:36;54.60;;;23.20;;
34471;SDS011;20710;49.976;19.836;2023-03-17T19:46:38;60.50;;;27.40;;
34471;SDS011;20710;49.976;19.836;2023-03-17T19:52:40;62.40;;;26.40;;
34471;SDS011;20710;49.976;19.836;2023-03-17T19:59:01;86.00;;;32.20;;
34471;SDS011;20710;49.976;19.836;2023-03-17T20:05:03;62.90;;;24.70;;
34471;SDS011;20710;49.976;19.836;2023-03-17T20:11:05;47.20;;;20.40;;
34471;SDS011;20710;49.976;19.836;2023-03-17T20:17:07;52.10;;;19.70;;
34471;SDS011;20710;49.976;19.836;2023-03-17T20:23:09;77.30;;;32.30;;
34471;SDS011;20710;49.976;19.836;2023-03-17T20:29:11;52.40;;;21.40;;
34471;SDS011;20710;49.976;19.836;2023-03-17T20:35:33;49.70;;;22.10;;
34471;SDS011;20710;49.976;19.836;2023-03-17T20:41:37;52.50;;;23.60;;
34471;SDS011;20710;49.976;19.836;2023-03-17T20:47:59;47.00;;;21.90;;
34471;SDS011;20710;49.976;19.836;2023-03-17T20:54:02;52.10;;;19.10;;
34471;SDS011;20710;49.976;19.836;2023-03-17T21:00:04;46.80;;;20.30;;
34471;SDS011;20710;49.976;19.836;2023-03-17T21:06:47;43.90;;;18.30;;
34471;SDS011;20710;49.976;19.836;2023-03-17T21:12:50;43.20;;;17.50;;
34471;SDS011;20710;49.976;19.836;2023-03-17T21:18:54;45.40;;;18.30;;
34471;SDS011;20710;49.976;19.836;2023-03-17T21:24:56;42.00;;;18.90;;
34471;SDS011;20710;49.976;19.836;2023-03-17T21:31:38;33.60;;;15.90;;
34471;SDS011;20710;49.976;19.836;2023-03-17T21:38:03;39.30;;;17.50;;
34471;SDS011;20710;49.976;19.836;2023-03-17T21:44:05;39.10;;;17.60;;
34471;SDS011;20710;49.976;19.836;2023-03-17T21:50:27;39.80;;;16.80;;
34471;SDS011;20710;49.976;19.836;2023-03-17T21:56:49;46.90;;;20.10;;
34471;SDS011;20710;49.976;19.836;2023-03-17T22:02:51;53.30;;;22.10;;
34471;SDS011;20710;49.976;19.836;2023-03-17T22:08:53;48.10;;;19.80;;
34471;SDS011;20710;49.976;19.836;2023-03-17T22:14:55;42.50;;;18.70;;
34471;SDS011;20710;49.976;19.836;2023-03-17T22:21:16;43.50;;;19.50;;
34471;SDS011;20710;49.976;19.836;2023-03-17T22:27:58;43.50;;;20.10;;
34471;SDS011;20710;49.976;19.836;2023-03-17T22:34:11;48.80;;;19.60;;
34471;SDS011;20710;49.976;19.836;2023-03-17T22:40:13;45.20;;;20.50;;
34471;SDS011;20710;49.976;19.836;2023-03-17T22:46:23;41.00;;;18.90;;
34471;SDS011;20710;49.976;19.836;2023-03-17T22:52:25;49.70;;;20.00;;
34471;SDS011;20710;49.976;19.836;2023-03-17T22:58:27;46.20;;;19.10;;
34471;SDS011;20710;49.976;19.836;2023-03-17T23:04:28;41.40;;;18.60;;
34471;SDS011;20710;49.976;19.836;2023-03-17T23:10:30;56.40;;;22.60;;
34471;SDS011;20710;49.976;19.836;2023-03-17T23:16:33;44.60;;;21.30;;
34471;SDS011;20710;49.976;19.836;2023-03-17T23:22:37;39.00;;;18.20;;
34471;SDS011;20710;49.976;19.836;2023-03-17T23:29:05;41.90;;;19.20;;
34471;SDS011;20710;49.976;19.836;2023-03-17T23:35:09;47.60;;;20.80;;
34471;SDS011;20710;49.976;19.836;2023-03-17T23:41:14;48.60;;;22.20;;
34471;SDS011;20710;49.976;19.836;2023-03-17T23:47:16;47.00;;;20.10;;
34471;SDS011;20710;49.976;19.836;2023-03-17T23:53:18;44.70;;;18.50;;
34471;SDS011;20710;49.976;19.836;2023-03-17T23:59:25;37.60;;;18.30;;
